sensor_id;sensor_type;location;lat;lon;timestamp;P1;durP1;ratioP1;P2;durP2;ratioP2
70183;SDS011;57554;51.546;6.776;2022-08-11T00:00:18;4.25;;;1.70;;
70183;SDS011;57554;51.546;6.776;2022-08-11T00:02:46;4.75;;;1.83;;
70183;SDS011;57554;51.546;6.776;2022-08-11T00:05:16;7.82;;;2.15;;
70183;SDS011;57554;51.546;6.776;2022-08-11T00:07:44;4.57;;;1.95;;
70183;SDS011;57554;51.546;6.776;2022-08-11T00:10:14;4.47;;;1.80;;
70183;SDS011;57554;51.546;6.776;2022-08-11T00:12:41;5.07;;;1.80;;
70183;SDS011;57554;51.546;6.776;2022-08-11T00:15:09;8.75;;;2.10;;
70183;SDS011;57554;51.546;6.776;2022-08-11T00:17:35;4.70;;;1.80;;
70183;SDS011;57554;51.546;6.776;2022-08-11T00:20:06;7.30;;;2.05;;
70183;SDS011;57554;51.546;6.776;2022-08-11T00:22:35;4.47;;;1.70;;
70183;SDS011;57554;51.546;6.776;2022-08-11T00:25:12;5.72;;;1.70;;
70183;SDS011;57554;51.546;6.776;2022-08-11T00:27:42;4.68;;;1.95;;
70183;SDS011;57554;51.546;6.776;2022-08-11T00:30:11;7.80;;;1.80;;
70183;SDS011;57554;51.546;6.776;2022-08-11T00:32:37;6.05;;;2.05;;
70183;SDS011;57554;51.546;6.776;2022-08-11T00:35:06;6.68;;;2.17;;
70183;SDS011;57554;51.546;6.776;2022-08-11T00:37:35;9.20;;;2.20;;
70183;SDS011;57554;51.546;6.776;2022-08-11T00:40:02;7.68;;;2.28;;
70183;SDS011;57554;51.546;6.776;2022-08-11T00:42:41;4.53;;;1.70;;
70183;SDS011;57554;51.546;6.776;2022-08-11T00:45:23;10.55;;;2.92;;
70183;SDS011;57554;51.546;6.776;2022-08-11T00:48:03;6.68;;;2.50;;
70183;SDS011;57554;51.546;6.776;2022-08-11T00:53:47;5.15;;;2.22;;
70183;SDS011;57554;51.546;6.776;2022-08-11T01:10:46;8.50;;;2.55;;
70183;SDS011;57554;51.546;6.776;2022-08-11T01:29:56;4.90;;;1.98;;
70183;SDS011;57554;51.546;6.776;2022-08-11T01:41:05;5.43;;;2.00;;
70183;SDS011;57554;51.546;6.776;2022-08-11T01:55:14;7.70;;;2.20;;
70183;SDS011;57554;51.546;6.776;2022-08-11T02:00:29;5.22;;;1.80;;
70183;SDS011;57554;51.546;6.776;2022-08-11T02:03:00;4.53;;;1.90;;
70183;SDS011;57554;51.546;6.776;2022-08-11T02:06:01;8.50;;;2.55;;
70183;SDS011;57554;51.546;6.776;2022-08-11T02:08:58;6.78;;;2.30;;
70183;SDS011;57554;51.546;6.776;2022-08-11T02:11:45;5.82;;;2.40;;
70183;SDS011;57554;51.546;6.776;2022-08-11T02:17:14;6.40;;;2.50;;
70183;SDS011;57554;51.546;6.776;2022-08-11T02:20:06;4.85;;;2.00;;
70183;SDS011;57554;51.546;6.776;2022-08-11T02:26:09;5.13;;;2.03;;
70183;SDS011;57554;51.546;6.776;2022-08-11T04:09:10;6.10;;;2.60;;
70183;SDS011;57554;51.546;6.776;2022-08-11T04:14:50;10.05;;;2.72;;
70183;SDS011;57554;51.546;6.776;2022-08-11T04:18:00;5.95;;;2.45;;
70183;SDS011;57554;51.546;6.776;2022-08-11T04:46:13;6.50;;;2.20;;
70183;SDS011;57554;51.546;6.776;2022-08-11T04:55:35;8.93;;;2.47;;
70183;SDS011;57554;51.546;6.776;2022-08-11T04:58:51;7.90;;;2.80;;
70183;SDS011;57554;51.546;6.776;2022-08-11T05:16:17;7.22;;;2.70;;
70183;SDS011;57554;51.546;6.776;2022-08-11T05:19:06;4.97;;;1.98;;
70183;SDS011;57554;51.546;6.776;2022-08-11T05:21:57;6.80;;;2.35;;
70183;SDS011;57554;51.546;6.776;2022-08-11T05:24:43;5.78;;;2.35;;
70183;SDS011;57554;51.546;6.776;2022-08-11T05:27:35;7.30;;;2.33;;
70183;SDS011;57554;51.546;6.776;2022-08-11T05:30:27;5.72;;;2.10;;
70183;SDS011;57554;51.546;6.776;2022-08-11T05:33:34;7.80;;;2.58;;
70183;SDS011;57554;51.546;6.776;2022-08-11T05:39:22;6.93;;;2.50;;
70183;SDS011;57554;51.546;6.776;2022-08-11T05:42:10;7.78;;;2.53;;
70183;SDS011;57554;51.546;6.776;2022-08-11T05:44:59;6.00;;;2.50;;
70183;SDS011;57554;51.546;6.776;2022-08-11T05:47:47;6.70;;;2.28;;
70183;SDS011;57554;51.546;6.776;2022-08-11T05:50:32;7.32;;;2.40;;
70183;SDS011;57554;51.546;6.776;2022-08-11T05:53:17;9.38;;;2.63;;
70183;SDS011;57554;51.546;6.776;2022-08-11T05:56:03;6.80;;;2.60;;
70183;SDS011;57554;51.546;6.776;2022-08-11T05:58:47;9.10;;;2.58;;
70183;SDS011;57554;51.546;6.776;2022-08-11T06:01:28;7.05;;;2.42;;
70183;SDS011;57554;51.546;6.776;2022-08-11T06:03:56;9.18;;;2.67;;
70183;SDS011;57554;51.546;6.776;2022-08-11T06:06:45;7.82;;;2.70;;
70183;SDS011;57554;51.546;6.776;2022-08-11T06:09:21;7.78;;;2.30;;
70183;SDS011;57554;51.546;6.776;2022-08-11T06:11:49;8.63;;;2.50;;
70183;SDS011;57554;51.546;6.776;2022-08-11T06:14:15;4.65;;;2.20;;
70183;SDS011;57554;51.546;6.776;2022-08-11T06:16:42;8.63;;;2.42;;
70183;SDS011;57554;51.546;6.776;2022-08-11T06:19:12;7.32;;;2.67;;
70183;SDS011;57554;51.546;6.776;2022-08-11T06:21:42;8.50;;;2.47;;
70183;SDS011;57554;51.546;6.776;2022-08-11T06:24:11;6.05;;;2.40;;
70183;SDS011;57554;51.546;6.776;2022-08-11T06:26:39;8.93;;;2.70;;
70183;SDS011;57554;51.546;6.776;2022-08-11T06:29:05;6.63;;;2.67;;
70183;SDS011;57554;51.546;6.776;2022-08-11T06:31:32;6.35;;;2.40;;
70183;SDS011;57554;51.546;6.776;2022-08-11T06:36:43;7.85;;;2.72;;
70183;SDS011;57554;51.546;6.776;2022-08-11T06:39:46;6.75;;;2.38;;
70183;SDS011;57554;51.546;6.776;2022-08-11T06:43:18;6.50;;;2.55;;
70183;SDS011;57554;51.546;6.776;2022-08-11T06:45:29;8.93;;;2.60;;
70183;SDS011;57554;51.546;6.776;2022-08-11T06:48:04;8.82;;;2.88;;
70183;SDS011;57554;51.546;6.776;2022-08-11T06:50:35;4.50;;;2.22;;
70183;SDS011;57554;51.546;6.776;2022-08-11T06:53:19;9.25;;;2.83;;
70183;SDS011;57554;51.546;6.776;2022-08-11T06:55:47;9.95;;;2.60;;
70183;SDS011;57554;51.546;6.776;2022-08-11T06:58:34;11.02;;;3.17;;
70183;SDS011;57554;51.546;6.776;2022-08-11T07:01:56;6.60;;;2.50;;
70183;SDS011;57554;51.546;6.776;2022-08-11T07:07:36;12.80;;;2.78;;
70183;SDS011;57554;51.546;6.776;2022-08-11T07:13:51;7.43;;;2.53;;
70183;SDS011;57554;51.546;6.776;2022-08-11T07:16:39;6.88;;;2.53;;
70183;SDS011;57554;51.546;6.776;2022-08-11T07:19:08;6.65;;;2.85;;
70183;SDS011;57554;51.546;6.776;2022-08-11T07:21:54;8.23;;;2.88;;
70183;SDS011;57554;51.546;6.776;2022-08-11T07:24:52;6.60;;;2.80;;
70183;SDS011;57554;51.546;6.776;2022-08-11T07:27:43;7.55;;;2.83;;
70183;SDS011;57554;51.546;6.776;2022-08-11T07:30:27;10.23;;;2.83;;
70183;SDS011;57554;51.546;6.776;2022-08-11T07:32:55;10.00;;;2.90;;
70183;SDS011;57554;51.546;6.776;2022-08-11T07:35:34;6.50;;;3.00;;
70183;SDS011;57554;51.546;6.776;2022-08-11T07:38:07;7.55;;;3.20;;
70183;SDS011;57554;51.546;6.776;2022-08-11T07:40:38;6.90;;;2.95;;
70183;SDS011;57554;51.546;6.776;2022-08-11T07:43:06;10.15;;;2.83;;
70183;SDS011;57554;51.546;6.776;2022-08-11T07:45:32;10.45;;;3.13;;
70183;SDS011;57554;51.546;6.776;2022-08-11T07:48:16;8.38;;;3.53;;
70183;SDS011;57554;51.546;6.776;2022-08-11T07:51:02;7.93;;;3.47;;
70183;SDS011;57554;51.546;6.776;2022-08-11T07:53:47;5.85;;;2.90;;
70183;SDS011;57554;51.546;6.776;2022-08-11T07:56:14;8.27;;;2.90;;
70183;SDS011;57554;51.546;6.776;2022-08-11T07:58:43;9.60;;;3.15;;
70183;SDS011;57554;51.546;6.776;2022-08-11T08:01:28;8.70;;;3.30;;
70183;SDS011;57554;51.546;6.776;2022-08-11T08:04:14;9.85;;;3.15;;
70183;SDS011;57554;51.546;6.776;2022-08-11T08:07:00;7.22;;;3.03;;
70183;SDS011;57554;51.546;6.776;2022-08-11T08:09:46;9.23;;;3.00;;
70183;SDS011;57554;51.546;6.776;2022-08-11T08:12:32;8.82;;;3.08;;
70183;SDS011;57554;51.546;6.776;2022-08-11T08:15:17;10.40;;;2.90;;
70183;SDS011;57554;51.546;6.776;2022-08-11T08:18:04;7.07;;;3.30;;
70183;SDS011;57554;51.546;6.776;2022-08-11T08:20:33;6.93;;;2.63;;
70183;SDS011;57554;51.546;6.776;2022-08-11T08:23:02;9.77;;;3.13;;
70183;SDS011;57554;51.546;6.776;2022-08-11T08:25:30;8.30;;;2.95;;
70183;SDS011;57554;51.546;6.776;2022-08-11T08:27:58;5.78;;;2.65;;
70183;SDS011;57554;51.546;6.776;2022-08-11T08:30:26;7.38;;;2.88;;
70183;SDS011;57554;51.546;6.776;2022-08-11T08:33:18;9.70;;;2.85;;
70183;SDS011;57554;51.546;6.776;2022-08-11T08:35:46;8.77;;;3.28;;
70183;SDS011;57554;51.546;6.776;2022-08-11T08:38:14;7.93;;;3.22;;
70183;SDS011;57554;51.546;6.776;2022-08-11T08:40:41;8.48;;;3.25;;
70183;SDS011;57554;51.546;6.776;2022-08-11T08:43:11;6.93;;;2.97;;
70183;SDS011;57554;51.546;6.776;2022-08-11T08:45:41;8.13;;;3.33;;
70183;SDS011;57554;51.546;6.776;2022-08-11T08:48:12;9.38;;;3.45;;
70183;SDS011;57554;51.546;6.776;2022-08-11T08:50:44;7.70;;;3.05;;
70183;SDS011;57554;51.546;6.776;2022-08-11T08:53:38;8.15;;;2.92;;
70183;SDS011;57554;51.546;6.776;2022-08-11T08:56:08;8.55;;;3.00;;
70183;SDS011;57554;51.546;6.776;2022-08-11T08:58:36;7.97;;;3.03;;
70183;SDS011;57554;51.546;6.776;2022-08-11T09:01:03;6.55;;;2.88;;
70183;SDS011;57554;51.546;6.776;2022-08-11T09:03:29;8.02;;;2.90;;
70183;SDS011;57554;51.546;6.776;2022-08-11T09:05:56;6.30;;;3.03;;
70183;SDS011;57554;51.546;6.776;2022-08-11T09:08:22;8.85;;;2.92;;
70183;SDS011;57554;51.546;6.776;2022-08-11T09:10:49;8.20;;;3.03;;
70183;SDS011;57554;51.546;6.776;2022-08-11T09:13:35;9.68;;;2.88;;
70183;SDS011;57554;51.546;6.776;2022-08-11T09:16:06;11.82;;;3.20;;
70183;SDS011;57554;51.546;6.776;2022-08-11T09:18:36;7.40;;;3.00;;
70183;SDS011;57554;51.546;6.776;2022-08-11T09:21:02;7.20;;;3.10;;
70183;SDS011;57554;51.546;6.776;2022-08-11T09:23:29;7.28;;;2.85;;
70183;SDS011;57554;51.546;6.776;2022-08-11T09:26:14;11.90;;;2.90;;
70183;SDS011;57554;51.546;6.776;2022-08-11T09:29:09;5.75;;;2.53;;
70183;SDS011;57554;51.546;6.776;2022-08-11T09:31:36;5.65;;;2.92;;
70183;SDS011;57554;51.546;6.776;2022-08-11T09:34:02;9.05;;;2.58;;
70183;SDS011;57554;51.546;6.776;2022-08-11T09:36:28;6.80;;;2.90;;
70183;SDS011;57554;51.546;6.776;2022-08-11T09:39:14;9.55;;;2.60;;
70183;SDS011;57554;51.546;6.776;2022-08-11T09:42:01;6.40;;;2.72;;
70183;SDS011;57554;51.546;6.776;2022-08-11T09:44:28;6.38;;;2.50;;
70183;SDS011;57554;51.546;6.776;2022-08-11T09:47:20;6.80;;;2.80;;
70183;SDS011;57554;51.546;6.776;2022-08-11T09:49:54;8.57;;;2.60;;
70183;SDS011;57554;51.546;6.776;2022-08-11T09:52:23;5.97;;;2.58;;
70183;SDS011;57554;51.546;6.776;2022-08-11T09:54:50;5.78;;;2.63;;
70183;SDS011;57554;51.546;6.776;2022-08-11T09:57:18;5.45;;;2.67;;
70183;SDS011;57554;51.546;6.776;2022-08-11T10:00:04;5.78;;;2.42;;
70183;SDS011;57554;51.546;6.776;2022-08-11T10:02:37;6.28;;;2.30;;
70183;SDS011;57554;51.546;6.776;2022-08-11T10:05:14;7.30;;;2.75;;
70183;SDS011;57554;51.546;6.776;2022-08-11T10:08:02;7.38;;;2.80;;
70183;SDS011;57554;51.546;6.776;2022-08-11T10:10:29;5.82;;;2.38;;
70183;SDS011;57554;51.546;6.776;2022-08-11T10:13:09;10.27;;;2.97;;
70183;SDS011;57554;51.546;6.776;2022-08-11T10:15:40;8.13;;;2.50;;
70183;SDS011;57554;51.546;6.776;2022-08-11T10:18:17;8.02;;;2.80;;
70183;SDS011;57554;51.546;6.776;2022-08-11T10:21:26;7.68;;;2.40;;
70183;SDS011;57554;51.546;6.776;2022-08-11T10:23:53;6.22;;;2.60;;
70183;SDS011;57554;51.546;6.776;2022-08-11T10:26:40;7.15;;;2.40;;
70183;SDS011;57554;51.546;6.776;2022-08-11T10:29:52;6.60;;;2.80;;
70183;SDS011;57554;51.546;6.776;2022-08-11T10:32:30;6.60;;;2.40;;
70183;SDS011;57554;51.546;6.776;2022-08-11T10:35:15;5.88;;;2.25;;
70183;SDS011;57554;51.546;6.776;2022-08-11T10:37:44;7.15;;;2.63;;
70183;SDS011;57554;51.546;6.776;2022-08-11T10:40:14;5.47;;;2.33;;
70183;SDS011;57554;51.546;6.776;2022-08-11T10:42:42;8.30;;;2.67;;
70183;SDS011;57554;51.546;6.776;2022-08-11T10:45:28;5.60;;;2.60;;
70183;SDS011;57554;51.546;6.776;2022-08-11T10:48:13;7.53;;;2.45;;
70183;SDS011;57554;51.546;6.776;2022-08-11T10:50:40;6.97;;;2.63;;
70183;SDS011;57554;51.546;6.776;2022-08-11T10:53:29;8.25;;;2.60;;
70183;SDS011;57554;51.546;6.776;2022-08-11T10:56:13;5.72;;;2.30;;
70183;SDS011;57554;51.546;6.776;2022-08-11T10:58:58;5.10;;;2.33;;
70183;SDS011;57554;51.546;6.776;2022-08-11T11:01:29;8.02;;;2.72;;
70183;SDS011;57554;51.546;6.776;2022-08-11T11:04:02;5.38;;;2.67;;
70183;SDS011;57554;51.546;6.776;2022-08-11T11:06:35;6.40;;;2.45;;
70183;SDS011;57554;51.546;6.776;2022-08-11T11:09:17;5.95;;;2.38;;
70183;SDS011;57554;51.546;6.776;2022-08-11T11:12:05;8.45;;;2.63;;
70183;SDS011;57554;51.546;6.776;2022-08-11T11:14:55;6.88;;;2.25;;
70183;SDS011;57554;51.546;6.776;2022-08-11T11:17:47;7.05;;;2.40;;
70183;SDS011;57554;51.546;6.776;2022-08-11T11:20:29;5.00;;;2.55;;
70183;SDS011;57554;51.546;6.776;2022-08-11T11:23:00;6.85;;;2.40;;
70183;SDS011;57554;51.546;6.776;2022-08-11T11:36:35;8.30;;;2.67;;
70183;SDS011;57554;51.546;6.776;2022-08-11T11:39:22;7.75;;;2.85;;
70183;SDS011;57554;51.546;6.776;2022-08-11T11:41:52;5.88;;;2.45;;
70183;SDS011;57554;51.546;6.776;2022-08-11T11:44:19;8.23;;;2.75;;
70183;SDS011;57554;51.546;6.776;2022-08-11T11:46:49;4.95;;;2.40;;
70183;SDS011;57554;51.546;6.776;2022-08-11T11:49:17;8.27;;;2.40;;
70183;SDS011;57554;51.546;6.776;2022-08-11T11:51:44;8.02;;;2.22;;
70183;SDS011;57554;51.546;6.776;2022-08-11T11:54:13;4.80;;;2.40;;
70183;SDS011;57554;51.546;6.776;2022-08-11T11:56:40;7.57;;;2.85;;
70183;SDS011;57554;51.546;6.776;2022-08-11T11:59:07;6.22;;;2.67;;
70183;SDS011;57554;51.546;6.776;2022-08-11T12:01:53;6.97;;;2.90;;
70183;SDS011;57554;51.546;6.776;2022-08-11T12:04:20;6.78;;;2.63;;
70183;SDS011;57554;51.546;6.776;2022-08-11T12:06:47;9.63;;;2.45;;
70183;SDS011;57554;51.546;6.776;2022-08-11T12:09:13;7.00;;;2.72;;
70183;SDS011;57554;51.546;6.776;2022-08-11T12:11:42;5.85;;;2.20;;
70183;SDS011;57554;51.546;6.776;2022-08-11T12:14:28;9.75;;;2.63;;
70183;SDS011;57554;51.546;6.776;2022-08-11T12:16:55;7.32;;;2.40;;
70183;SDS011;57554;51.546;6.776;2022-08-11T12:19:24;6.75;;;2.38;;
70183;SDS011;57554;51.546;6.776;2022-08-11T12:21:55;5.53;;;2.40;;
70183;SDS011;57554;51.546;6.776;2022-08-11T12:24:40;7.80;;;2.83;;
70183;SDS011;57554;51.546;6.776;2022-08-11T12:27:25;6.45;;;2.40;;
70183;SDS011;57554;51.546;6.776;2022-08-11T12:29:53;6.82;;;2.50;;
70183;SDS011;57554;51.546;6.776;2022-08-11T12:32:34;5.25;;;2.20;;
70183;SDS011;57554;51.546;6.776;2022-08-11T12:35:03;7.20;;;2.58;;
70183;SDS011;57554;51.546;6.776;2022-08-11T12:37:40;5.72;;;2.50;;
70183;SDS011;57554;51.546;6.776;2022-08-11T12:40:13;6.18;;;2.50;;
70183;SDS011;57554;51.546;6.776;2022-08-11T12:43:00;7.05;;;2.45;;
70183;SDS011;57554;51.546;6.776;2022-08-11T12:45:45;7.35;;;2.50;;
70183;SDS011;57554;51.546;6.776;2022-08-11T12:48:14;6.55;;;2.67;;
70183;SDS011;57554;51.546;6.776;2022-08-11T12:51:04;9.23;;;2.58;;
70183;SDS011;57554;51.546;6.776;2022-08-11T12:57:01;6.57;;;2.28;;
70183;SDS011;57554;51.546;6.776;2022-08-11T12:59:49;12.82;;;2.60;;
70183;SDS011;57554;51.546;6.776;2022-08-11T13:02:34;7.10;;;2.65;;
70183;SDS011;57554;51.546;6.776;2022-08-11T13:05:19;6.85;;;2.33;;
70183;SDS011;57554;51.546;6.776;2022-08-11T13:07:46;14.30;;;2.90;;
70183;SDS011;57554;51.546;6.776;2022-08-11T13:10:13;7.78;;;2.90;;
70183;SDS011;57554;51.546;6.776;2022-08-11T13:13:02;8.52;;;3.10;;
70183;SDS011;57554;51.546;6.776;2022-08-11T13:15:29;10.25;;;2.92;;
70183;SDS011;57554;51.546;6.776;2022-08-11T13:17:55;9.23;;;2.70;;
70183;SDS011;57554;51.546;6.776;2022-08-11T13:20:23;11.50;;;2.95;;
70183;SDS011;57554;51.546;6.776;2022-08-11T13:22:51;7.07;;;2.60;;
70183;SDS011;57554;51.546;6.776;2022-08-11T13:25:23;6.55;;;2.80;;
70183;SDS011;57554;51.546;6.776;2022-08-11T13:27:52;9.10;;;2.60;;
70183;SDS011;57554;51.546;6.776;2022-08-11T13:30:21;6.00;;;2.70;;
70183;SDS011;57554;51.546;6.776;2022-08-11T13:33:07;10.18;;;2.72;;
70183;SDS011;57554;51.546;6.776;2022-08-11T13:35:34;6.43;;;2.58;;
70183;SDS011;57554;51.546;6.776;2022-08-11T13:38:00;10.90;;;2.65;;
70183;SDS011;57554;51.546;6.776;2022-08-11T13:40:28;5.75;;;2.63;;
70183;SDS011;57554;51.546;6.776;2022-08-11T13:42:54;7.90;;;2.40;;
70183;SDS011;57554;51.546;6.776;2022-08-11T13:45:22;5.60;;;2.78;;
70183;SDS011;57554;51.546;6.776;2022-08-11T13:47:50;8.23;;;2.63;;
70183;SDS011;57554;51.546;6.776;2022-08-11T13:50:19;7.45;;;2.83;;
70183;SDS011;57554;51.546;6.776;2022-08-11T13:52:45;8.02;;;2.60;;
70183;SDS011;57554;51.546;6.776;2022-08-11T13:55:13;5.03;;;2.25;;
70183;SDS011;57554;51.546;6.776;2022-08-11T13:57:49;6.88;;;2.70;;
70183;SDS011;57554;51.546;6.776;2022-08-11T14:00:17;8.10;;;3.00;;
70183;SDS011;57554;51.546;6.776;2022-08-11T14:02:44;7.00;;;2.65;;
70183;SDS011;57554;51.546;6.776;2022-08-11T14:05:23;7.85;;;2.65;;
70183;SDS011;57554;51.546;6.776;2022-08-11T14:07:52;6.95;;;2.63;;
70183;SDS011;57554;51.546;6.776;2022-08-11T14:10:25;5.93;;;2.75;;
70183;SDS011;57554;51.546;6.776;2022-08-11T14:12:54;4.78;;;2.67;;
70183;SDS011;57554;51.546;6.776;2022-08-11T14:15:42;6.50;;;2.88;;
70183;SDS011;57554;51.546;6.776;2022-08-11T14:18:17;5.55;;;2.38;;
70183;SDS011;57554;51.546;6.776;2022-08-11T14:20:53;5.20;;;2.42;;
70183;SDS011;57554;51.546;6.776;2022-08-11T14:23:40;9.45;;;2.83;;
70183;SDS011;57554;51.546;6.776;2022-08-11T14:26:09;8.82;;;2.72;;
70183;SDS011;57554;51.546;6.776;2022-08-11T14:29:00;5.68;;;2.70;;
70183;SDS011;57554;51.546;6.776;2022-08-11T14:31:29;6.68;;;2.80;;
70183;SDS011;57554;51.546;6.776;2022-08-11T14:33:57;7.80;;;2.70;;
70183;SDS011;57554;51.546;6.776;2022-08-11T14:36:27;7.88;;;2.72;;
70183;SDS011;57554;51.546;6.776;2022-08-11T14:39:08;6.68;;;3.00;;
70183;SDS011;57554;51.546;6.776;2022-08-11T14:41:38;9.55;;;2.95;;
70183;SDS011;57554;51.546;6.776;2022-08-11T14:44:24;5.28;;;2.70;;
70183;SDS011;57554;51.546;6.776;2022-08-11T14:47:10;6.72;;;2.80;;
70183;SDS011;57554;51.546;6.776;2022-08-11T14:49:39;8.18;;;2.90;;
70183;SDS011;57554;51.546;6.776;2022-08-11T14:52:08;10.63;;;2.60;;
70183;SDS011;57554;51.546;6.776;2022-08-11T14:54:35;5.72;;;2.80;;
70183;SDS011;57554;51.546;6.776;2022-08-11T14:57:31;8.27;;;2.80;;
70183;SDS011;57554;51.546;6.776;2022-08-11T15:00:00;5.38;;;2.42;;
70183;SDS011;57554;51.546;6.776;2022-08-11T15:02:28;5.25;;;2.40;;
70183;SDS011;57554;51.546;6.776;2022-08-11T15:05:13;6.90;;;2.85;;
70183;SDS011;57554;51.546;6.776;2022-08-11T15:07:39;8.63;;;2.78;;
70183;SDS011;57554;51.546;6.776;2022-08-11T15:10:06;7.47;;;2.63;;
70183;SDS011;57554;51.546;6.776;2022-08-11T15:12:34;6.90;;;2.72;;
70183;SDS011;57554;51.546;6.776;2022-08-11T15:15:04;6.57;;;2.80;;
70183;SDS011;57554;51.546;6.776;2022-08-11T15:17:53;13.80;;;2.40;;
70183;SDS011;57554;51.546;6.776;2022-08-11T15:20:21;8.75;;;2.45;;
70183;SDS011;57554;51.546;6.776;2022-08-11T15:23:07;7.40;;;2.75;;
70183;SDS011;57554;51.546;6.776;2022-08-11T15:25:54;6.40;;;2.70;;
70183;SDS011;57554;51.546;6.776;2022-08-11T15:28:26;6.63;;;2.70;;
70183;SDS011;57554;51.546;6.776;2022-08-11T15:31:14;9.45;;;2.63;;
70183;SDS011;57554;51.546;6.776;2022-08-11T15:33:49;8.35;;;3.10;;
70183;SDS011;57554;51.546;6.776;2022-08-11T15:36:35;8.60;;;2.72;;
70183;SDS011;57554;51.546;6.776;2022-08-11T15:39:22;6.28;;;2.45;;
70183;SDS011;57554;51.546;6.776;2022-08-11T15:44:58;6.50;;;2.90;;
70183;SDS011;57554;51.546;6.776;2022-08-11T15:47:48;6.63;;;2.30;;
70183;SDS011;57554;51.546;6.776;2022-08-11T15:50:21;5.88;;;2.60;;
70183;SDS011;57554;51.546;6.776;2022-08-11T15:52:55;6.85;;;2.60;;
70183;SDS011;57554;51.546;6.776;2022-08-11T15:55:26;5.68;;;2.50;;
70183;SDS011;57554;51.546;6.776;2022-08-11T15:57:54;6.65;;;2.22;;
70183;SDS011;57554;51.546;6.776;2022-08-11T16:00:42;7.97;;;2.85;;
70183;SDS011;57554;51.546;6.776;2022-08-11T16:03:29;7.38;;;2.47;;
70183;SDS011;57554;51.546;6.776;2022-08-11T16:06:17;8.30;;;2.60;;
70183;SDS011;57554;51.546;6.776;2022-08-11T16:08:44;6.30;;;2.60;;
70183;SDS011;57554;51.546;6.776;2022-08-11T16:11:12;5.15;;;2.35;;
70183;SDS011;57554;51.546;6.776;2022-08-11T16:13:39;6.22;;;2.45;;
70183;SDS011;57554;51.546;6.776;2022-08-11T16:16:04;8.50;;;2.70;;
70183;SDS011;57554;51.546;6.776;2022-08-11T16:18:44;10.82;;;2.72;;
70183;SDS011;57554;51.546;6.776;2022-08-11T16:21:16;6.22;;;2.63;;
70183;SDS011;57554;51.546;6.776;2022-08-11T16:23:45;6.68;;;2.80;;
70183;SDS011;57554;51.546;6.776;2022-08-11T16:26:13;5.15;;;2.40;;
70183;SDS011;57554;51.546;6.776;2022-08-11T16:28:43;7.95;;;2.88;;
70183;SDS011;57554;51.546;6.776;2022-08-11T16:31:10;5.57;;;2.70;;
70183;SDS011;57554;51.546;6.776;2022-08-11T16:33:38;10.57;;;3.10;;
70183;SDS011;57554;51.546;6.776;2022-08-11T16:36:09;6.53;;;2.72;;
70183;SDS011;57554;51.546;6.776;2022-08-11T16:38:54;7.72;;;2.80;;
70183;SDS011;57554;51.546;6.776;2022-08-11T16:41:22;7.07;;;2.88;;
70183;SDS011;57554;51.546;6.776;2022-08-11T16:44:09;4.40;;;2.40;;
70183;SDS011;57554;51.546;6.776;2022-08-11T16:46:55;6.88;;;2.75;;
70183;SDS011;57554;51.546;6.776;2022-08-11T16:49:25;6.53;;;2.67;;
70183;SDS011;57554;51.546;6.776;2022-08-11T16:51:59;7.90;;;2.85;;
70183;SDS011;57554;51.546;6.776;2022-08-11T16:54:28;6.60;;;2.60;;
70183;SDS011;57554;51.546;6.776;2022-08-11T16:56:55;7.05;;;2.50;;
70183;SDS011;57554;51.546;6.776;2022-08-11T16:59:42;7.85;;;2.83;;
70183;SDS011;57554;51.546;6.776;2022-08-11T17:02:11;6.82;;;2.65;;
70183;SDS011;57554;51.546;6.776;2022-08-11T17:04:58;6.07;;;2.30;;
70183;SDS011;57554;51.546;6.776;2022-08-11T17:07:48;6.40;;;2.90;;
70183;SDS011;57554;51.546;6.776;2022-08-11T17:10:34;6.43;;;2.97;;
70183;SDS011;57554;51.546;6.776;2022-08-11T17:13:26;6.43;;;2.58;;
70183;SDS011;57554;51.546;6.776;2022-08-11T17:15:56;6.05;;;2.88;;
70183;SDS011;57554;51.546;6.776;2022-08-11T17:18:32;6.72;;;2.60;;
70183;SDS011;57554;51.546;6.776;2022-08-11T17:21:05;7.28;;;2.88;;
70183;SDS011;57554;51.546;6.776;2022-08-11T17:23:34;5.82;;;2.70;;
70183;SDS011;57554;51.546;6.776;2022-08-11T17:26:11;6.63;;;2.63;;
70183;SDS011;57554;51.546;6.776;2022-08-11T17:28:41;4.72;;;2.60;;
70183;SDS011;57554;51.546;6.776;2022-08-11T17:31:08;8.13;;;2.90;;
70183;SDS011;57554;51.546;6.776;2022-08-11T17:33:56;5.85;;;2.72;;
70183;SDS011;57554;51.546;6.776;2022-08-11T17:36:42;8.07;;;2.80;;
70183;SDS011;57554;51.546;6.776;2022-08-11T17:39:09;11.48;;;2.75;;
70183;SDS011;57554;51.546;6.776;2022-08-11T17:41:36;6.32;;;2.80;;
70183;SDS011;57554;51.546;6.776;2022-08-11T17:44:21;5.63;;;2.80;;
70183;SDS011;57554;51.546;6.776;2022-08-11T17:47:08;5.68;;;3.05;;
70183;SDS011;57554;51.546;6.776;2022-08-11T17:49:54;8.70;;;2.78;;
70183;SDS011;57554;51.546;6.776;2022-08-11T17:52:21;6.78;;;2.85;;
70183;SDS011;57554;51.546;6.776;2022-08-11T17:55:07;13.20;;;2.92;;
70183;SDS011;57554;51.546;6.776;2022-08-11T17:57:53;4.60;;;2.63;;
70183;SDS011;57554;51.546;6.776;2022-08-11T18:00:38;7.03;;;3.03;;
70183;SDS011;57554;51.546;6.776;2022-08-11T18:03:04;6.97;;;3.00;;
70183;SDS011;57554;51.546;6.776;2022-08-11T18:05:49;7.88;;;2.80;;
70183;SDS011;57554;51.546;6.776;2022-08-11T18:08:15;5.55;;;2.50;;
70183;SDS011;57554;51.546;6.776;2022-08-11T18:11:02;6.10;;;3.17;;
70183;SDS011;57554;51.546;6.776;2022-08-11T18:13:48;5.63;;;2.60;;
70183;SDS011;57554;51.546;6.776;2022-08-11T18:16:34;7.22;;;3.00;;
70183;SDS011;57554;51.546;6.776;2022-08-11T18:19:18;8.15;;;2.80;;
70183;SDS011;57554;51.546;6.776;2022-08-11T18:22:07;10.38;;;3.17;;
70183;SDS011;57554;51.546;6.776;2022-08-11T18:24:54;7.28;;;2.72;;
70183;SDS011;57554;51.546;6.776;2022-08-11T18:27:43;8.43;;;2.95;;
70183;SDS011;57554;51.546;6.776;2022-08-11T18:30:30;6.32;;;2.83;;
70183;SDS011;57554;51.546;6.776;2022-08-11T18:33:19;6.63;;;3.20;;
70183;SDS011;57554;51.546;6.776;2022-08-11T18:36:06;7.15;;;2.80;;
70183;SDS011;57554;51.546;6.776;2022-08-11T18:38:55;9.80;;;3.03;;
70183;SDS011;57554;51.546;6.776;2022-08-11T18:41:41;9.50;;;2.88;;
70183;SDS011;57554;51.546;6.776;2022-08-11T18:44:29;8.20;;;3.10;;
70183;SDS011;57554;51.546;6.776;2022-08-11T18:47:15;9.43;;;3.05;;
70183;SDS011;57554;51.546;6.776;2022-08-11T18:50:02;10.23;;;2.95;;
70183;SDS011;57554;51.546;6.776;2022-08-11T18:52:50;9.63;;;2.80;;
70183;SDS011;57554;51.546;6.776;2022-08-11T18:55:36;8.55;;;2.80;;
70183;SDS011;57554;51.546;6.776;2022-08-11T18:58:22;9.38;;;3.25;;
70183;SDS011;57554;51.546;6.776;2022-08-11T19:01:11;9.80;;;3.30;;
70183;SDS011;57554;51.546;6.776;2022-08-11T19:03:59;7.43;;;3.15;;
70183;SDS011;57554;51.546;6.776;2022-08-11T19:06:47;8.50;;;3.05;;
70183;SDS011;57554;51.546;6.776;2022-08-11T19:09:36;8.27;;;3.20;;
70183;SDS011;57554;51.546;6.776;2022-08-11T19:12:24;6.60;;;3.20;;
70183;SDS011;57554;51.546;6.776;2022-08-11T19:15:11;5.43;;;2.88;;
70183;SDS011;57554;51.546;6.776;2022-08-11T19:17:56;6.53;;;3.35;;
70183;SDS011;57554;51.546;6.776;2022-08-11T19:20:41;8.23;;;3.13;;
70183;SDS011;57554;51.546;6.776;2022-08-11T19:23:27;7.47;;;3.25;;
70183;SDS011;57554;51.546;6.776;2022-08-11T19:26:24;10.98;;;3.25;;
70183;SDS011;57554;51.546;6.776;2022-08-11T19:29:10;6.22;;;3.42;;
70183;SDS011;57554;51.546;6.776;2022-08-11T19:31:57;6.45;;;2.92;;
70183;SDS011;57554;51.546;6.776;2022-08-11T19:34:42;7.15;;;3.35;;
70183;SDS011;57554;51.546;6.776;2022-08-11T19:37:28;6.85;;;3.38;;
70183;SDS011;57554;51.546;6.776;2022-08-11T19:40:13;7.93;;;3.22;;
70183;SDS011;57554;51.546;6.776;2022-08-11T19:42:59;7.00;;;3.20;;
70183;SDS011;57554;51.546;6.776;2022-08-11T19:45:46;7.97;;;3.25;;
70183;SDS011;57554;51.546;6.776;2022-08-11T19:48:31;5.95;;;3.13;;
70183;SDS011;57554;51.546;6.776;2022-08-11T19:51:17;7.80;;;3.47;;